GWRLD LPPR-GMTT
Flight info
| Callsign | GWRLD |
|---|---|
| Flight time | N/A |
| Altitude | 41000 |
| Route | MANIK DCT FTM DCT ESP DCT TROIA DCT VFA DCT ORTOP N726 ABIRO |
| Aircraft | CL60/M-SBDE1E2E3FGHIJ1J4J5J7M3RWXYZ/LB1V1D1 |
Departure
| Time | 2026-04-30 22:09 |
|---|---|
| Airport | Francisco de Sá Carneiro Airport (LPPR) |
Arrival
| Time | N/A |
|---|---|
| Airport | Tangier Ibn Battuta Airport (GMTT) |
| Time | Latitude | Longitude | Altitude | Speed | Heading |
|---|---|---|---|---|---|
| 2026-04-30 21:52 | 41.24022 | -8.67635 | 216 ft | 0 kts | 258° |
| 2026-04-30 22:01 | 41.24022 | -8.67636 | 216 ft | 0 kts | 258° |
| 2026-04-30 22:02 | 41.24024 | -8.67625 | 217 ft | 2 kts | 257° |
| 2026-04-30 22:02 | 41.24027 | -8.67605 | 218 ft | 2 kts | 258° |
| 2026-04-30 22:02 | 41.24030 | -8.67586 | 219 ft | 2 kts | 258° |
| 2026-04-30 22:02 | 41.24033 | -8.67566 | 220 ft | 2 kts | 258° |
| 2026-04-30 22:03 | 41.24032 | -8.67546 | 221 ft | 2 kts | 292° |
| 2026-04-30 22:03 | 41.24023 | -8.67531 | 222 ft | 2 kts | 326° |
| 2026-04-30 22:03 | 41.24012 | -8.67526 | 223 ft | 1 kts | 348° |
| 2026-04-30 22:05 | 41.24020 | -8.67528 | 223 ft | 3 kts | 349° |
| 2026-04-30 22:05 | 41.24085 | -8.67544 | 222 ft | 15 kts | 349° |
| 2026-04-30 22:06 | 41.24223 | -8.67585 | 219 ft | 19 kts | 333° |
| 2026-04-30 22:06 | 41.24432 | -8.67741 | 209 ft | 20 kts | 348° |
| 2026-04-30 22:06 | 41.24591 | -8.67783 | 205 ft | 24 kts | 349° |
| 2026-04-30 22:07 | 41.24770 | -8.67836 | 199 ft | 28 kts | 339° |
| 2026-04-30 22:07 | 41.24956 | -8.67932 | 192 ft | 29 kts | 348° |
| 2026-04-30 22:07 | 41.25158 | -8.67986 | 183 ft | 25 kts | 348° |
| 2026-04-30 22:07 | 41.25332 | -8.68032 | 177 ft | 25 kts | 348° |
| 2026-04-30 22:08 | 41.25504 | -8.68078 | 172 ft | 24 kts | 348° |
| 2026-04-30 22:08 | 41.25608 | -8.68152 | 165 ft | 16 kts | 279° |
| 2026-04-30 22:08 | 41.25592 | -8.68289 | 165 ft | 12 kts | 252° |
| 2026-04-30 22:08 | 41.25518 | -8.68313 | 168 ft | 18 kts | 168° |
| 2026-04-30 22:09 | 41.25063 | -8.68195 | 180 ft | 118 kts | 168° |
| 2026-04-30 22:09 | 41.24033 | -8.67921 | 581 ft | 171 kts | 168° |
| 2026-04-30 22:09 | 41.22826 | -8.67576 | 1583 ft | 188 kts | 168° |
| 2026-04-30 22:09 | 41.21534 | -8.67213 | 2661 ft | 202 kts | 169° |
| 2026-04-30 22:10 | 41.20052 | -8.66832 | 3373 ft | 229 kts | 170° |
| 2026-04-30 22:10 | 41.18372 | -8.66404 | 4046 ft | 257 kts | 169° |
| 2026-04-30 22:10 | 41.16586 | -8.65944 | 4730 ft | 264 kts | 169° |
| 2026-04-30 22:10 | 41.14764 | -8.65475 | 5439 ft | 264 kts | 168° |
| 2026-04-30 22:11 | 41.11129 | -8.64538 | 6857 ft | 267 kts | 168° |
| 2026-04-30 22:11 | 41.09281 | -8.64062 | 7588 ft | 269 kts | 168° |
| 2026-04-30 22:11 | 41.07439 | -8.63640 | 8405 ft | 271 kts | 174° |
| 2026-04-30 22:12 | 41.05518 | -8.63507 | 9233 ft | 285 kts | 178° |
| 2026-04-30 22:12 | 41.03437 | -8.63407 | 10054 ft | 312 kts | 178° |
| 2026-04-30 22:12 | 41.01199 | -8.63294 | 10874 ft | 330 kts | 178° |
| 2026-04-30 22:12 | 40.98856 | -8.63174 | 11704 ft | 337 kts | 178° |
| 2026-04-30 22:13 | 40.96456 | -8.63050 | 12551 ft | 340 kts | 178° |
| 2026-04-30 22:13 | 40.94080 | -8.62927 | 13382 ft | 344 kts | 179° |
| 2026-04-30 22:13 | 40.91657 | -8.62803 | 14256 ft | 353 kts | 179° |
| 2026-04-30 22:13 | 40.89201 | -8.62676 | 15402 ft | 357 kts | 179° |
| 2026-04-30 22:14 | 40.86726 | -8.62547 | 16612 ft | 358 kts | 179° |
| 2026-04-30 22:14 | 40.84217 | -8.62417 | 17732 ft | 361 kts | 179° |
| 2026-04-30 22:14 | 40.81705 | -8.62286 | 18753 ft | 365 kts | 179° |
| 2026-04-30 22:14 | 40.79139 | -8.62152 | 19745 ft | 369 kts | 179° |
| 2026-04-30 22:15 | 40.76543 | -8.62016 | 20671 ft | 373 kts | 179° |
| 2026-04-30 22:15 | 40.73896 | -8.61878 | 21551 ft | 378 kts | 179° |
| 2026-04-30 22:15 | 40.71267 | -8.61779 | 22418 ft | 381 kts | 182° |
| 2026-04-30 22:15 | 40.68580 | -8.62014 | 23252 ft | 385 kts | 186° |
| 2026-04-30 22:16 | 40.65879 | -8.62310 | 24010 ft | 390 kts | 186° |
| 2026-04-30 22:16 | 40.63148 | -8.62603 | 24680 ft | 396 kts | 186° |
| 2026-04-30 22:17 | 40.54718 | -8.63494 | 26645 ft | 411 kts | 186° |
| 2026-04-30 22:17 | 40.51846 | -8.63794 | 27262 ft | 415 kts | 186° |
| 2026-04-30 22:17 | 40.45986 | -8.64403 | 28317 ft | 424 kts | 187° |
| 2026-04-30 22:18 | 40.43015 | -8.64709 | 28819 ft | 429 kts | 187° |
| 2026-04-30 22:18 | 40.36945 | -8.65334 | 29734 ft | 437 kts | 187° |
| 2026-04-30 22:19 | 40.30814 | -8.65961 | 30512 ft | 445 kts | 187° |
| 2026-04-30 22:19 | 40.27674 | -8.66281 | 30906 ft | 446 kts | 187° |
| 2026-04-30 22:19 | 40.21434 | -8.66913 | 31658 ft | 445 kts | 187° |
| 2026-04-30 22:20 | 40.18320 | -8.67229 | 32020 ft | 445 kts | 188° |
| 2026-04-30 22:20 | 40.12115 | -8.67856 | 32719 ft | 446 kts | 188° |
| 2026-04-30 22:20 | 40.09012 | -8.68169 | 33064 ft | 448 kts | 188° |
| 2026-04-30 22:21 | 40.05868 | -8.68486 | 33410 ft | 449 kts | 188° |
| 2026-04-30 22:21 | 40.02720 | -8.68803 | 33752 ft | 450 kts | 188° |
| 2026-04-30 22:21 | 39.99563 | -8.69121 | 34042 ft | 453 kts | 188° |
| 2026-04-30 22:21 | 39.96366 | -8.69443 | 34339 ft | 455 kts | 188° |
| 2026-04-30 22:22 | 39.93164 | -8.69764 | 34693 ft | 456 kts | 188° |
| 2026-04-30 22:22 | 39.90010 | -8.70079 | 35044 ft | 455 kts | 188° |
| 2026-04-30 22:22 | 39.86877 | -8.70392 | 35396 ft | 454 kts | 188° |
| 2026-04-30 22:22 | 39.83722 | -8.70707 | 35752 ft | 454 kts | 188° |
| 2026-04-30 22:23 | 39.80510 | -8.71028 | 36115 ft | 452 kts | 188° |
| 2026-04-30 22:23 | 39.77345 | -8.71343 | 36515 ft | 452 kts | 188° |
| 2026-04-30 22:23 | 39.74184 | -8.71658 | 36878 ft | 452 kts | 188° |
| 2026-04-30 22:23 | 39.71054 | -8.71970 | 37230 ft | 452 kts | 188° |
| 2026-04-30 22:24 | 39.67858 | -8.72288 | 37592 ft | 452 kts | 188° |
| 2026-04-30 22:24 | 39.64697 | -8.72602 | 37951 ft | 451 kts | 188° |
| 2026-04-30 22:24 | 39.61543 | -8.72915 | 38309 ft | 450 kts | 188° |
| 2026-04-30 22:24 | 39.58398 | -8.73227 | 38666 ft | 448 kts | 188° |
| 2026-04-30 22:25 | 39.55239 | -8.73539 | 39027 ft | 446 kts | 188° |
| 2026-04-30 22:25 | 39.52145 | -8.73846 | 39343 ft | 445 kts | 188° |
| 2026-04-30 22:25 | 39.49004 | -8.74156 | 39568 ft | 445 kts | 188° |
| 2026-04-30 22:25 | 39.45923 | -8.74462 | 39732 ft | 446 kts | 188° |
| 2026-04-30 22:26 | 39.39631 | -8.75084 | 39965 ft | 448 kts | 188° |
| 2026-04-30 22:26 | 39.36516 | -8.75391 | 40086 ft | 448 kts | 188° |
| 2026-04-30 22:26 | 39.33378 | -8.75700 | 40196 ft | 448 kts | 188° |
| 2026-04-30 22:27 | 39.30261 | -8.76008 | 40295 ft | 448 kts | 188° |
| 2026-04-30 22:27 | 39.27144 | -8.76314 | 40400 ft | 448 kts | 188° |
| 2026-04-30 22:27 | 39.20889 | -8.76929 | 40660 ft | 446 kts | 188° |
| 2026-04-30 22:28 | 39.14809 | -8.77525 | 40910 ft | 445 kts | 188° |
| 2026-04-30 22:28 | 39.11686 | -8.77831 | 41039 ft | 444 kts | 188° |
| 2026-04-30 22:29 | 38.99204 | -8.79053 | 41139 ft | 451 kts | 188° |
| 2026-04-30 22:31 | 38.76758 | -8.81242 | 41141 ft | 468 kts | 188° |
| 2026-04-30 22:32 | 38.60392 | -8.82825 | 41141 ft | 465 kts | 188° |
| 2026-04-30 22:33 | 38.44022 | -8.82746 | 41134 ft | 474 kts | 171° |
| 2026-04-30 22:34 | 38.34639 | -8.77967 | 41134 ft | 482 kts | 157° |
| 2026-04-30 22:35 | 38.28534 | -8.74165 | 41134 ft | 483 kts | 157° |
| 2026-04-30 22:36 | 38.13409 | -8.64778 | 41146 ft | 483 kts | 157° |
| 2026-04-30 22:37 | 38.01154 | -8.57205 | 41131 ft | 483 kts | 157° |
| 2026-04-30 22:38 | 37.88964 | -8.49701 | 41133 ft | 485 kts | 158° |
| 2026-04-30 22:39 | 37.79753 | -8.44049 | 41130 ft | 485 kts | 158° |
| 2026-04-30 22:40 | 37.61362 | -8.32812 | 41134 ft | 484 kts | 158° |
| 2026-04-30 22:41 | 37.46012 | -8.23456 | 41129 ft | 486 kts | 158° |
| 2026-04-30 22:43 | 37.27589 | -8.12323 | 41126 ft | 487 kts | 159° |
| 2026-04-30 22:44 | 37.15296 | -8.04928 | 41132 ft | 488 kts | 159° |
| 2026-04-30 22:45 | 36.96751 | -7.93816 | 41129 ft | 488 kts | 159° |
| 2026-04-30 22:47 | 36.78183 | -7.82750 | 41132 ft | 489 kts | 159° |
| 2026-04-30 22:48 | 36.65738 | -7.75365 | 41132 ft | 491 kts | 159° |
| 2026-04-30 22:49 | 36.47345 | -7.64494 | 41129 ft | 479 kts | 159° |
| 2026-04-30 22:51 | 36.28959 | -7.53695 | 40663 ft | 494 kts | 159° |
| 2026-04-30 22:51 | 36.22705 | -7.50033 | 39167 ft | 495 kts | 160° |
| 2026-04-30 22:52 | 36.19596 | -7.48213 | 38448 ft | 492 kts | 159° |
| 2026-04-30 22:52 | 36.13485 | -7.44265 | 36997 ft | 491 kts | 152° |
| 2026-04-30 22:53 | 36.08043 | -7.39004 | 35523 ft | 502 kts | 139° |
| 2026-04-30 22:53 | 36.03466 | -7.32328 | 33984 ft | 510 kts | 126° |
| 2026-04-30 22:53 | 36.01622 | -7.28556 | 33134 ft | 509 kts | 118° |
| 2026-04-30 22:54 | 35.99034 | -7.20456 | 31826 ft | 501 kts | 105° |
| 2026-04-30 22:55 | 35.96477 | -7.08059 | 29872 ft | 486 kts | 103° |
| 2026-04-30 22:55 | 35.94818 | -7.00016 | 28585 ft | 477 kts | 104° |
| 2026-04-30 22:56 | 35.93189 | -6.92150 | 27325 ft | 466 kts | 104° |
| 2026-04-30 22:56 | 35.90778 | -6.80717 | 25482 ft | 449 kts | 106° |
| 2026-04-30 22:57 | 35.89060 | -6.73353 | 24044 ft | 443 kts | 107° |
| 2026-04-30 22:57 | 35.87367 | -6.66107 | 22255 ft | 431 kts | 107° |
| 2026-04-30 22:58 | 35.85743 | -6.59173 | 20587 ft | 407 kts | 106° |
| 2026-04-30 22:59 | 35.83450 | -6.49414 | 18310 ft | 389 kts | 106° |
| 2026-04-30 22:59 | 35.81244 | -6.40051 | 15959 ft | 366 kts | 106° |